Topi Weather



Topi's Current Weather

Temprature 25.61o haze

haze

Rain: 0 %

Min Temprature24o
Max Temprature27.22o
Humidity78
Wind Speed3.6 m/h
Sun Rise05:36:28
Sun Set18:48:38
Current Time: 23-Aug-2019 06:17:44
Lat/Lon: 34.07, 72.61




Topi's Geo Location



Topi's Weather Forecast

Time Overall Temp Min Temp Max Temp Humidity Wind Speed Rain
23-Aug-2019 (Fri)
08:00:00 clear sky 28.660 28.660 29.327 53 2.16 m/h 0 %
11:00:00 clear sky 33.650 33.650 34.150 40 0.38 m/h 0 %
14:00:00 clear sky 35.800 35.800 36.131 35 1.71 m/h 0 %
17:00:00 clear sky 35.940 35.940 36.111 34 0.93 m/h 0 %
20:00:00 clear sky 31.750 31.750 31.750 44 3.01 m/h 0 %
23:00:00 clear sky 29.442 29.442 29.442 55 3.03 m/h 0 %
24-Aug-2019 (Sat)
02:00:00 clear sky 28.031 28.031 28.031 60 2.17 m/h 0 %
05:00:00 light rain 26.955 26.955 26.955 59 2.26 m/h 6 %
08:00:00 light rain 29.867 29.867 29.867 51 2.16 m/h 19 %
11:00:00 clear sky 34.969 34.969 34.969 39 1.16 m/h 0 %
14:00:00 clear sky 37.269 37.269 37.269 32 1.41 m/h 0 %
17:00:00 clear sky 37.223 37.223 37.223 31 0.72 m/h 0 %
20:00:00 clear sky 32.650 32.650 32.650 42 2.55 m/h 0 %
23:00:00 clear sky 30.069 30.069 30.069 51 3.22 m/h 0 %
25-Aug-2019 (Sun)
02:00:00 clear sky 28.531 28.531 28.531 56 1.49 m/h 0 %
05:00:00 clear sky 27.457 27.457 27.457 57 2.5 m/h 0 %
08:00:00 clear sky 30.314 30.314 30.314 50 2.91 m/h 0 %
11:00:00 clear sky 35.616 35.616 35.616 37 0.73 m/h 0 %
14:00:00 clear sky 38.150 38.150 38.150 31 1.06 m/h 0 %
17:00:00 clear sky 37.850 37.850 37.850 32 2.1 m/h 0 %
20:00:00 clear sky 32.881 32.881 32.881 43 3.74 m/h 0 %
23:00:00 clear sky 30.511 30.511 30.511 49 2.2 m/h 0 %
26-Aug-2019 (Mon)
02:00:00 light rain 29.165 29.165 29.165 56 2.86 m/h 19 %
05:00:00 light rain 26.250 26.250 26.250 71 1.98 m/h 225 %
08:00:00 light rain 28.767 28.767 28.767 61 0.9 m/h 181 %
11:00:00 light rain 33.272 33.272 33.272 49 0.81 m/h 56 %
14:00:00 clear sky 36.384 36.384 36.384 39 0.99 m/h 0 %
17:00:00 clear sky 36.120 36.120 36.120 40 2.58 m/h 0 %
20:00:00 clear sky 32.072 32.072 32.072 49 3.76 m/h 0 %
23:00:00 clear sky 30.314 30.314 30.314 55 2.15 m/h 0 %
27-Aug-2019 (Tue)
02:00:00 clear sky 29.116 29.116 29.116 59 1.23 m/h 0 %
05:00:00 clear sky 28.050 28.050 28.050 62 1.52 m/h 0 %
08:00:00 light rain 30.435 30.435 30.435 57 2.1 m/h 44 %
11:00:00 clear sky 34.936 34.936 34.936 44 0.62 m/h 0 %
14:00:00 clear sky 37.036 37.036 37.036 38 1.84 m/h 0 %
17:00:00 clear sky 37.065 37.065 37.065 36 0.82 m/h 0 %
20:00:00 broken clouds 33.050 33.050 33.050 45 3.17 m/h 0 %
23:00:00 scattered clouds 30.850 30.850 30.850 53 2.28 m/h 0 %
28-Aug-2019 (Wed)
02:00:00 light rain 28.857 28.857 28.857 62 2.19 m/h 44 %
05:00:00 light rain 27.572 27.572 27.572 68 1.89 m/h 69 %

Famous Cities (61)